Terminal Aerodrome Forecast
Issued by NWS

Home | Current Version | Previous Version | Text Only | Print | Product List | Glossary On
Versions: 1 2 3 4 5 6 7 8 9 10 11 12 13 14 15 16 17 18
000
FTUS41 KCAR 281734
TAFFVE
TAF
KFVE 281734Z 2818/2918 35021G35KT P6SM BKN025
     FM282300 36013G20KT P6SM OVC035
     FM290300 01012KT P6SM OVC030
     FM290500 01011KT P6SM OVC020
     FM291400 02009KT P6SM OVC025=

USA.gov is the U.S. government's official web portal to all federal, state and local government web resources and services.